createdAt,value
2022-12-14T00:01:54.440Z,100741.59
2022-12-14T00:04:21.467Z,100733.09
2022-12-14T00:06:48.764Z,100732.16
2022-12-14T00:09:16.068Z,100732.56
2022-12-14T00:11:45.274Z,100724.66
2022-12-14T00:14:12.279Z,100718.53
2022-12-14T00:16:39.477Z,100726.81
2022-12-14T00:19:06.609Z,100714.34
2022-12-14T00:21:33.933Z,100713.03
2022-12-14T00:24:01.069Z,100710.34
2022-12-14T00:26:32.723Z,100711.13
2022-12-14T00:29:01.996Z,100709.16
2022-12-14T00:31:31.351Z,100708.59
2022-12-14T00:36:46.889Z,100705.31
2022-12-14T00:39:13.897Z,100704.72
2022-12-14T00:41:40.980Z,100706.59
2022-12-14T00:44:08.076Z,100708.75
2022-12-14T00:46:35.152Z,100705.59
2022-12-14T00:49:02.187Z,100705.53
2022-12-14T00:51:31.680Z,100708.94
2022-12-14T00:53:58.692Z,100703.34
2022-12-14T00:56:28.206Z,100709.97
2022-12-14T00:58:55.274Z,100714.78
2022-12-14T01:01:25.991Z,100715.34
2022-12-14T01:04:13.202Z,100719.94
2022-12-14T01:06:40.306Z,100717.28
2022-12-14T01:09:07.437Z,100707.47
2022-12-14T01:11:34.528Z,100708.13
2022-12-14T01:14:03.017Z,100710.53
2022-12-14T01:16:30.278Z,100702.06
2022-12-14T01:19:00.777Z,100707.81
2022-12-14T01:21:28.392Z,100702.16
2022-12-14T01:23:59.542Z,100709.84
2022-12-14T01:26:29.003Z,100708.44
2022-12-14T01:28:58.683Z,100706.34
2022-12-14T01:31:32.810Z,100701.38
2022-12-14T01:34:00.437Z,100700.53
2022-12-14T01:36:33.804Z,100700.63
2022-12-14T01:39:13.749Z,100701.53
2022-12-14T01:41:47.487Z,100698.31
2022-12-14T01:44:17.537Z,100701.84
2022-12-14T01:47:12.382Z,100702.09
2022-12-14T01:50:16.685Z,100692.50
2022-12-14T01:52:47.915Z,100688.53
2022-12-14T01:55:48.971Z,100683.25
2022-12-14T01:58:20.182Z,100676.53
2022-12-14T02:00:47.456Z,100673.66
2022-12-14T02:03:41.502Z,100678.09
2022-12-14T02:06:40.212Z,100674.22
2022-12-14T02:09:15.356Z,100674.97
2022-12-14T02:12:09.124Z,100667.47
2022-12-14T02:14:36.437Z,100665.47
2022-12-14T02:17:04.687Z,100660.09
2022-12-14T02:19:31.738Z,100660.09
2022-12-14T02:22:33.749Z,100661.69
2022-12-14T02:25:31.779Z,100661.84
2022-12-14T02:28:10.989Z,100664.81
2022-12-14T02:30:41.488Z,100654.56
2022-12-14T02:33:35.839Z,100661.69
2022-12-14T02:36:13.540Z,100664.34
2022-12-14T02:39:15.859Z,100666.09
2022-12-14T02:41:55.229Z,100661.66
2022-12-14T02:44:55.470Z,100662.28
2022-12-14T02:47:37.500Z,100651.97
2022-12-14T02:50:04.645Z,100648.56
2022-12-14T02:52:54.108Z,100655.03
2022-12-14T02:55:37.433Z,100653.66
2022-12-14T02:58:27.128Z,100647.84
2022-12-14T03:00:56.193Z,100646.25
2022-12-14T03:03:24.159Z,100650.75
2022-12-14T03:06:04.082Z,100646.13
2022-12-14T03:08:35.947Z,100651.50
2022-12-14T03:11:07.013Z,100655.53
2022-12-14T03:14:01.114Z,100651.59
2022-12-14T03:16:36.310Z,100645.25
2022-12-14T03:19:18.664Z,100653.13
2022-12-14T03:21:52.833Z,100645.25
2022-12-14T03:24:39.342Z,100657.00
2022-12-14T03:27:33.777Z,100658.13
2022-12-14T03:30:10.796Z,100648.59
2022-12-14T03:33:08.154Z,100659.75
2022-12-14T03:35:46.200Z,100656.63
2022-12-14T03:41:36.382Z,100658.34
2022-12-14T03:44:23.793Z,100656.06
2022-12-14T03:46:58.506Z,100653.63
2022-12-14T03:50:00.821Z,100650.19
2022-12-14T03:52:36.332Z,100644.94
2022-12-14T03:55:32.773Z,100646.78
2022-12-14T03:58:43.138Z,100640.22
2022-12-14T04:01:35.391Z,100648.03
2022-12-14T04:04:29.142Z,100649.06
2022-12-14T04:07:44.064Z,100638.81
2022-12-14T04:10:43.568Z,100636.97
2022-12-14T04:13:40.049Z,100638.75
2022-12-14T04:16:33.430Z,100641.81
2022-12-14T04:19:06.905Z,100645.09
2022-12-14T04:22:18.246Z,100649.72
2022-12-14T04:25:13.730Z,100643.63
2022-12-14T04:28:34.555Z,100648.59
2022-12-14T04:31:08.297Z,100641.19
2022-12-14T04:33:47.000Z,100650.53
2022-12-14T04:36:32.822Z,100646.22
2022-12-14T04:39:08.197Z,100642.50
2022-12-14T04:41:41.713Z,100636.31
2022-12-14T04:44:30.695Z,100637.81
2022-12-14T04:47:01.499Z,100639.50
2022-12-14T04:49:41.703Z,100641.19
2022-12-14T04:52:34.705Z,100641.56
2022-12-14T04:55:08.602Z,100643.84
2022-12-14T04:58:26.153Z,100643.50
2022-12-14T05:01:33.882Z,100645.41
2022-12-14T05:04:10.985Z,100640.53
2022-12-14T05:07:04.116Z,100638.47
2022-12-14T05:10:03.710Z,100641.03
2022-12-14T05:12:52.572Z,100645.78
2022-12-14T05:15:30.726Z,100630.75
2022-12-14T05:18:05.553Z,100636.44
2022-12-14T05:20:32.927Z,100646.38
2022-12-14T05:23:00.038Z,100635.63
2022-12-14T05:25:27.172Z,100637.69
2022-12-14T05:27:54.233Z,100630.19
2022-12-14T05:30:21.386Z,100637.69
2022-12-14T05:32:48.593Z,100638.84
2022-12-14T05:35:18.623Z,100633.09
2022-12-14T05:37:45.781Z,100636.13
2022-12-14T05:40:17.288Z,100639.31
2022-12-14T05:42:48.602Z,100644.81
2022-12-14T05:45:18.063Z,100638.66
2022-12-14T05:47:45.296Z,100638.31
2022-12-14T05:50:12.410Z,100631.78
2022-12-14T05:52:40.030Z,100642.22
2022-12-14T05:55:07.840Z,100627.72
2022-12-14T05:57:34.847Z,100626.78
2022-12-14T06:00:02.445Z,100622.16
2022-12-14T06:02:29.553Z,100614.63
2022-12-14T06:04:56.929Z,100622.16
2022-12-14T06:07:27.702Z,100634.34
2022-12-14T06:10:01.674Z,100630.00
2022-12-14T06:12:28.754Z,100627.63
2022-12-14T06:14:58.362Z,100626.53
2022-12-14T06:17:25.425Z,100621.34
2022-12-14T06:19:52.610Z,100627.50
2022-12-14T06:22:21.453Z,100628.56
2022-12-14T06:24:48.517Z,100617.72
2022-12-14T06:27:15.618Z,100625.06
2022-12-14T06:29:42.772Z,100626.97
2022-12-14T06:32:09.754Z,100624.38
2022-12-14T06:34:40.655Z,100624.44
2022-12-14T06:37:09.581Z,100622.13
2022-12-14T06:39:36.706Z,100623.81
2022-12-14T06:42:06.534Z,100624.13
2022-12-14T06:44:33.532Z,100615.94
2022-12-14T06:47:00.756Z,100609.53
2022-12-14T06:49:28.020Z,100607.16
2022-12-14T06:51:55.091Z,100611.13
2022-12-14T06:54:24.669Z,100623.97
2022-12-14T06:56:51.885Z,100629.81
2022-12-14T06:59:19.095Z,100625.88
2022-12-14T07:01:46.636Z,100626.97
2022-12-14T07:04:18.818Z,100619.69
2022-12-14T07:06:45.865Z,100623.16
2022-12-14T07:09:14.342Z,100623.03
2022-12-14T07:11:42.003Z,100623.91
2022-12-14T07:14:16.211Z,100611.41
2022-12-14T07:16:47.746Z,100608.13
2022-12-14T07:19:15.532Z,100623.16
2022-12-14T07:21:42.611Z,100623.44
2022-12-14T07:24:12.124Z,100612.06
2022-12-14T07:26:39.219Z,100613.94
2022-12-14T07:29:06.730Z,100616.81
2022-12-14T07:31:33.892Z,100618.88
2022-12-14T07:34:01.005Z,100618.91
2022-12-14T07:36:30.314Z,100604.72
2022-12-14T07:38:59.996Z,100613.31
2022-12-14T07:41:31.255Z,100615.47
2022-12-14T07:44:03.973Z,100617.66
2022-12-14T07:46:32.534Z,100612.84
2022-12-14T07:49:04.240Z,100617.38
2022-12-14T07:51:44.328Z,100613.25
2022-12-14T07:54:13.440Z,100628.53
2022-12-14T07:56:43.748Z,100619.13
2022-12-14T07:59:17.239Z,100607.09
2022-12-14T08:01:44.880Z,100614.94
2022-12-14T08:04:16.917Z,100624.19
2022-12-14T08:06:44.595Z,100612.75
2022-12-14T08:09:12.291Z,100615.69
2022-12-14T08:11:40.281Z,100615.88
2022-12-14T08:14:14.083Z,100626.88
2022-12-14T08:16:41.136Z,100612.88
2022-12-14T08:19:08.179Z,100625.94
2022-12-14T08:21:35.502Z,100626.38
2022-12-14T08:24:02.601Z,100627.19
2022-12-14T08:26:35.148Z,100613.31
2022-12-14T08:29:04.456Z,100622.09
2022-12-14T08:31:33.033Z,100613.94
2022-12-14T08:34:02.672Z,100614.13
2022-12-14T08:36:34.077Z,100616.31
2022-12-14T08:39:04.744Z,100614.31
2022-12-14T08:41:32.519Z,100608.31
2022-12-14T08:44:01.590Z,100610.19
2022-12-14T08:46:34.850Z,100608.88
2022-12-14T08:49:02.045Z,100595.31
2022-12-14T08:51:29.645Z,100605.66
2022-12-14T08:53:58.360Z,100600.88
2022-12-14T08:56:27.972Z,100602.31
2022-12-14T08:58:56.849Z,100596.09
2022-12-14T09:01:33.009Z,100588.25
2022-12-14T09:04:08.205Z,100590.75
2022-12-14T09:06:38.517Z,100580.38
2022-12-14T09:09:13.590Z,100587.66
2022-12-14T09:11:45.847Z,100573.75
2022-12-14T09:14:15.473Z,100579.31
2022-12-14T09:16:42.742Z,100571.31
2022-12-14T09:19:17.458Z,100576.06
2022-12-14T09:21:44.531Z,100552.34
2022-12-14T09:24:12.046Z,100548.91
2022-12-14T09:26:39.183Z,100548.06
2022-12-14T09:29:06.269Z,100553.34
2022-12-14T09:31:35.573Z,100544.50
2022-12-14T09:34:04.758Z,100542.94
2022-12-14T09:36:34.225Z,100537.31
2022-12-14T09:39:01.843Z,100530.63
2022-12-14T09:41:43.637Z,100529.25
2022-12-14T09:44:18.140Z,100523.81
2022-12-14T09:47:13.847Z,100516.13
2022-12-14T09:49:55.394Z,100520.22
2022-12-14T09:52:51.213Z,100499.44
2022-12-14T09:55:37.260Z,100498.19
2022-12-14T09:58:24.346Z,100499.69
2022-12-14T10:01:24.544Z,100489.13
2022-12-14T10:04:27.221Z,100492.16
2022-12-14T10:07:02.666Z,100482.38
2022-12-14T10:10:01.195Z,100479.47
2022-12-14T10:13:29.190Z,100474.19
2022-12-14T10:16:22.767Z,100472.13
2022-12-14T10:19:14.819Z,100462.47
2022-12-14T10:22:09.193Z,100469.97
2022-12-14T10:24:49.197Z,100468.03
2022-12-14T10:27:47.646Z,100470.97
2022-12-14T10:30:23.583Z,100460.59
2022-12-14T10:33:13.569Z,100463.06
2022-12-14T10:35:54.211Z,100455.09
2022-12-14T10:39:01.963Z,100470.97
2022-12-14T10:41:55.191Z,100466.34
2022-12-14T10:44:34.021Z,100459.38
2022-12-14T10:47:52.795Z,100454.38
2022-12-14T10:51:02.086Z,100446.63
2022-12-14T10:53:44.023Z,100440.28
2022-12-14T10:56:21.114Z,100434.84
2022-12-14T10:59:16.558Z,100443.84
2022-12-14T11:01:50.093Z,100434.97
2022-12-14T11:04:48.630Z,100427.59
2022-12-14T11:07:19.427Z,100425.44
2022-12-14T11:09:47.169Z,100434.66
2022-12-14T11:12:14.175Z,100410.94
2022-12-14T11:15:23.391Z,100410.53
2022-12-14T11:18:20.211Z,100409.53
2022-12-14T11:21:06.283Z,100412.53
2022-12-14T11:23:45.306Z,100407.84
2022-12-14T11:26:43.181Z,100405.94
2022-12-14T11:29:35.309Z,100410.75
2022-12-14T11:32:03.559Z,100396.56
2022-12-14T11:34:34.752Z,100397.44
2022-12-14T11:37:21.549Z,100403.94
2022-12-14T11:39:59.044Z,100398.19
2022-12-14T11:42:26.843Z,100404.38
2022-12-14T11:44:55.212Z,100391.78
2022-12-14T11:47:26.666Z,100383.25
2022-12-14T11:50:00.501Z,100381.59
2022-12-14T11:52:45.033Z,100379.19
2022-12-14T11:55:26.820Z,100373.38
2022-12-14T11:58:03.213Z,100372.00
2022-12-14T12:00:51.070Z,100366.19
2022-12-14T12:03:51.693Z,100372.94
2022-12-14T12:06:25.754Z,100360.16
2022-12-14T12:09:02.628Z,100351.47
2022-12-14T12:11:35.133Z,100354.97
2022-12-14T12:14:39.081Z,100357.59
2022-12-14T12:17:42.532Z,100355.69
2022-12-14T12:20:28.295Z,100346.03
2022-12-14T12:23:17.890Z,100331.13
2022-12-14T12:25:48.299Z,100345.19
2022-12-14T12:28:32.229Z,100345.28
2022-12-14T12:31:16.956Z,100347.56
2022-12-14T12:33:59.509Z,100347.69
2022-12-14T12:36:27.145Z,100342.50
2022-12-14T12:39:19.162Z,100349.56
2022-12-14T12:42:19.811Z,100348.38
2022-12-14T12:45:03.264Z,100342.34
2022-12-14T12:47:47.760Z,100338.13
2022-12-14T12:50:20.318Z,100337.31
2022-12-14T12:53:18.092Z,100342.03
2022-12-14T12:55:53.708Z,100341.31
2022-12-14T12:58:30.246Z,100336.84
2022-12-14T13:01:07.598Z,100329.00
2022-12-14T13:03:45.860Z,100313.94
2022-12-14T13:06:42.566Z,100316.47
2022-12-14T13:09:34.103Z,100317.97
2022-12-14T13:12:25.721Z,100303.81
2022-12-14T13:14:57.206Z,100313.56
2022-12-14T13:18:02.616Z,100313.56
2022-12-14T13:20:33.621Z,100312.78
2022-12-14T13:23:36.034Z,100305.19
2022-12-14T13:27:02.965Z,100303.19
2022-12-14T13:30:00.417Z,100292.44
2022-12-14T13:32:59.291Z,100296.09
2022-12-14T13:36:09.883Z,100285.59
2022-12-14T13:38:57.857Z,100285.38
2022-12-14T13:42:11.578Z,100284.16
2022-12-14T13:45:05.782Z,100275.94
2022-12-14T13:47:44.795Z,100279.44
2022-12-14T13:50:36.279Z,100269.81
2022-12-14T13:53:13.281Z,100266.91
2022-12-14T13:55:56.262Z,100269.97
2022-12-14T13:58:24.306Z,100270.84
2022-12-14T14:00:53.218Z,100267.28
2022-12-14T14:03:45.075Z,100262.72
2022-12-14T14:06:12.219Z,100263.91
2022-12-14T14:08:44.682Z,100274.00
2022-12-14T14:11:39.670Z,100276.13
2022-12-14T14:14:34.436Z,100269.31
2022-12-14T14:17:31.965Z,100261.47
2022-12-14T14:20:00.047Z,100262.81
2022-12-14T14:22:29.841Z,100255.25
2022-12-14T14:25:37.802Z,100264.47
2022-12-14T14:28:05.170Z,100258.56
2022-12-14T14:30:48.739Z,100266.00
2022-12-14T14:33:55.350Z,100263.09
2022-12-14T14:36:33.484Z,100261.03
2022-12-14T14:39:10.687Z,100267.09
2022-12-14T14:41:52.779Z,100258.09
2022-12-14T14:44:58.286Z,100250.78
2022-12-14T14:47:31.148Z,100247.28
2022-12-14T14:50:15.964Z,100238.53
2022-12-14T14:52:42.852Z,100234.66
2022-12-14T14:58:25.667Z,100235.84
2022-12-14T15:01:03.954Z,100239.47
2022-12-14T15:04:00.500Z,100239.31
2022-12-14T15:06:40.496Z,100244.00
2022-12-14T15:09:13.329Z,100233.19
2022-12-14T15:11:50.581Z,100229.88
2022-12-14T15:14:35.011Z,100227.38
2022-12-14T15:17:13.312Z,100224.94
2022-12-14T15:19:48.818Z,100220.06
2022-12-14T15:22:41.735Z,100228.03
2022-12-14T15:25:28.322Z,100225.84
2022-12-14T15:27:59.938Z,100229.13
2022-12-14T15:30:31.518Z,100221.81
2022-12-14T15:33:07.082Z,100225.97
2022-12-14T15:35:40.180Z,100210.44
2022-12-14T15:38:31.535Z,100214.59
2022-12-14T15:41:15.786Z,100203.38
2022-12-14T15:43:50.250Z,100198.41
2022-12-14T15:46:26.913Z,100196.31
2022-12-14T15:49:03.933Z,100199.53
2022-12-14T15:51:44.356Z,100196.38
2022-12-14T15:54:19.956Z,100198.19
2022-12-14T15:56:58.881Z,100194.34
2022-12-14T15:59:34.530Z,100195.56
2022-12-14T16:02:58.592Z,100189.28
2022-12-14T16:05:26.304Z,100200.00
2022-12-14T16:07:57.397Z,100197.38
2022-12-14T16:10:33.380Z,100190.56
2022-12-14T16:13:22.402Z,100188.88
2022-12-14T16:15:52.785Z,100193.03
2022-12-14T16:18:22.939Z,100190.84
2022-12-14T16:21:19.676Z,100181.28
2022-12-14T16:23:50.230Z,100173.88
2022-12-14T16:26:43.970Z,100173.34
2022-12-14T16:29:29.852Z,100169.66
2022-12-14T16:32:09.503Z,100165.38
2022-12-14T16:34:41.811Z,100164.22
2022-12-14T16:37:34.088Z,100164.97
2022-12-14T16:40:01.645Z,100156.66
2022-12-14T16:42:35.059Z,100158.38
2022-12-14T16:45:02.311Z,100165.06
2022-12-14T16:47:35.297Z,100164.22
2022-12-14T16:50:08.269Z,100156.75
2022-12-14T16:52:36.922Z,100147.69
2022-12-14T16:55:20.587Z,100147.91
2022-12-14T16:58:00.964Z,100145.63
2022-12-14T17:00:35.029Z,100141.69
2022-12-14T17:03:19.848Z,100135.63
2022-12-14T17:05:57.493Z,100137.53
2022-12-14T17:08:25.045Z,100131.63
2022-12-14T17:10:55.078Z,100132.59
2022-12-14T17:13:24.627Z,100124.31
2022-12-14T17:16:02.299Z,100129.81
2022-12-14T17:18:39.412Z,100125.84
2022-12-14T17:21:09.296Z,100123.94
2022-12-14T17:23:40.844Z,100117.31
2022-12-14T17:26:22.659Z,100116.34
2022-12-14T17:28:51.360Z,100110.25
2022-12-14T17:31:26.907Z,100108.16
2022-12-14T17:33:57.595Z,100107.00
2022-12-14T17:36:27.543Z,100106.75
2022-12-14T17:38:56.631Z,100101.97
2022-12-14T17:41:30.492Z,100091.13
2022-12-14T17:43:59.334Z,100098.66
2022-12-14T17:46:26.787Z,100087.09
2022-12-14T17:49:02.897Z,100081.22
2022-12-14T17:51:41.820Z,100084.31
2022-12-14T17:54:25.919Z,100088.47
2022-12-14T17:56:56.255Z,100090.72
2022-12-14T17:59:23.368Z,100082.06
2022-12-14T18:01:50.731Z,100092.03
2022-12-14T18:04:20.376Z,100093.13
2022-12-14T18:06:47.382Z,100082.53
2022-12-14T18:09:18.632Z,100074.22
2022-12-14T18:12:21.032Z,100074.22
2022-12-14T18:14:32.837Z,100069.03
2022-12-14T18:17:06.604Z,100066.66
2022-12-14T18:19:37.097Z,100070.97
2022-12-14T18:22:09.304Z,100065.53
2022-12-14T18:24:38.870Z,100063.44
2022-12-14T18:27:08.106Z,100065.13
2022-12-14T18:29:35.613Z,100064.47
2022-12-14T18:32:03.567Z,100062.06
2022-12-14T18:34:30.633Z,100067.31
2022-12-14T18:36:58.515Z,100064.59
2022-12-14T18:39:25.641Z,100073.06
2022-12-14T18:41:52.641Z,100078.22
2022-12-14T18:44:19.713Z,100072.06
2022-12-14T18:46:49.505Z,100079.16
2022-12-14T18:49:18.920Z,100075.06
2022-12-14T18:51:46.005Z,100081.84
2022-12-14T18:54:13.264Z,100073.13
2022-12-14T18:56:42.694Z,100070.78
2022-12-14T18:59:09.991Z,100065.59
2022-12-14T19:01:37.237Z,100061.59
2022-12-14T19:04:05.785Z,100071.13
2022-12-14T19:06:48.453Z,100065.34
2022-12-14T19:09:15.793Z,100078.44
2022-12-14T19:11:46.004Z,100071.03
2022-12-14T19:14:13.177Z,100071.53
2022-12-14T19:16:42.765Z,100072.75
2022-12-14T19:19:10.220Z,100069.88
2022-12-14T19:21:37.365Z,100069.56
2022-12-14T19:24:05.253Z,100064.28
2022-12-14T19:26:32.411Z,100067.59
2022-12-14T19:28:59.607Z,100053.91
2022-12-14T19:31:27.305Z,100058.28
2022-12-14T19:33:54.955Z,100057.03
2022-12-14T19:36:22.206Z,100067.56
2022-12-14T19:38:49.745Z,100065.00
2022-12-14T19:41:20.669Z,100067.72
2022-12-14T19:43:48.478Z,100064.38
2022-12-14T19:46:17.736Z,100072.53
2022-12-14T19:48:45.209Z,100074.84
2022-12-14T19:51:13.416Z,100067.81
2022-12-14T19:53:43.001Z,100068.34
2022-12-14T19:56:14.820Z,100070.81
2022-12-14T19:58:42.065Z,100075.25
2022-12-14T20:01:16.579Z,100069.78
2022-12-14T20:03:43.957Z,100063.50
2022-12-14T20:06:11.133Z,100061.03
2022-12-14T20:08:40.760Z,100062.88
2022-12-14T20:11:10.489Z,100067.38
2022-12-14T20:13:38.359Z,100062.66
2022-12-14T20:16:06.105Z,100068.84
2022-12-14T20:18:33.717Z,100065.03
2022-12-14T20:21:09.850Z,100067.13
2022-12-14T20:23:38.699Z,100064.94
2022-12-14T20:26:11.135Z,100053.94
2022-12-14T20:28:39.361Z,100051.81
2022-12-14T20:31:09.895Z,100053.81
2022-12-14T20:33:38.751Z,100059.16
2022-12-14T20:36:07.193Z,100051.94
2022-12-14T20:38:34.398Z,100042.25
2022-12-14T20:41:08.336Z,100052.47
2022-12-14T20:43:37.552Z,100050.28
2022-12-14T20:46:06.012Z,100047.78
2022-12-14T20:48:33.759Z,100036.88
2022-12-14T20:51:03.846Z,100046.09
2022-12-14T20:53:31.377Z,100040.56
2022-12-14T20:56:04.931Z,100037.16
2022-12-14T20:58:32.281Z,100037.72
2022-12-14T21:01:09.558Z,100032.81
2022-12-14T21:03:37.002Z,100035.41
2022-12-14T21:06:04.303Z,100039.47
2022-12-14T21:08:31.826Z,100041.22
2022-12-14T21:11:23.242Z,100036.75
2022-12-14T21:13:50.273Z,100039.59
2022-12-14T21:16:17.507Z,100032.00
2022-12-14T21:18:44.665Z,100034.69
2022-12-14T21:21:11.885Z,100036.28
2022-12-14T21:23:41.440Z,100031.94
2022-12-14T21:26:08.591Z,100030.72
2022-12-14T21:28:35.681Z,100029.38
2022-12-14T21:31:08.529Z,100031.19
2022-12-14T21:33:35.884Z,100027.31
2022-12-14T21:36:10.138Z,100020.38
2022-12-14T21:38:40.207Z,100016.69
2022-12-14T21:41:26.467Z,100022.09
2022-12-14T21:43:56.076Z,100010.13
2022-12-14T21:46:27.874Z,100015.25
2022-12-14T21:48:58.624Z,100020.25
2022-12-14T21:51:25.700Z,100015.78
2022-12-14T21:54:01.434Z,100005.81
2022-12-14T21:56:56.143Z,100004.34
2022-12-14T21:59:29.050Z,100007.72
2022-12-14T22:01:59.102Z,100000.66
2022-12-14T22:04:27.691Z,100004.53
2022-12-14T22:06:55.290Z,99999.06
2022-12-14T22:09:25.348Z,99994.53
2022-12-14T22:11:53.077Z,100003.41
2022-12-14T22:14:24.411Z,100005.16
2022-12-14T22:16:52.960Z,100006.38
2022-12-14T22:19:23.302Z,99992.13
2022-12-14T22:21:51.994Z,99998.63
2022-12-14T22:24:21.362Z,99986.31
2022-12-14T22:26:50.978Z,99993.50
2022-12-14T22:29:19.798Z,99995.88
2022-12-14T22:31:47.026Z,99992.06
2022-12-14T22:34:23.481Z,99993.69
2022-12-14T22:36:52.652Z,99990.28
2022-12-14T22:39:22.216Z,99984.03
2022-12-14T22:41:49.701Z,99979.31
2022-12-14T22:44:19.362Z,99977.69
2022-12-14T22:46:46.422Z,99979.31
2022-12-14T22:49:19.149Z,99973.38
2022-12-14T22:51:46.848Z,99971.09
2022-12-14T22:54:26.990Z,99976.84
2022-12-14T22:57:07.548Z,99972.84
2022-12-14T22:59:36.384Z,99981.50
2022-12-14T23:02:04.150Z,99976.66
2022-12-14T23:04:31.865Z,99975.63
2022-12-14T23:06:58.954Z,99986.53
2022-12-14T23:09:44.864Z,99979.75
2022-12-14T23:12:30.788Z,99986.84
2022-12-14T23:15:16.614Z,99982.06
2022-12-14T23:18:02.445Z,99977.78
2022-12-14T23:20:48.571Z,99974.50
2022-12-14T23:23:34.323Z,99969.44
2022-12-14T23:26:22.843Z,99969.63
2022-12-14T23:29:08.871Z,99965.53
2022-12-14T23:31:54.650Z,99965.94
2022-12-14T23:34:40.432Z,99973.44
2022-12-14T23:37:26.305Z,99975.63
2022-12-14T23:40:14.175Z,99978.94
2022-12-14T23:43:01.358Z,99977.38
2022-12-14T23:45:49.858Z,99972.94
2022-12-14T23:48:35.738Z,99976.25
2022-12-14T23:51:21.558Z,99976.22
2022-12-14T23:54:07.723Z,99977.38
2022-12-14T23:56:53.790Z,99967.97
2022-12-14T23:59:39.610Z,99966.53
